Time;durP1;ratioP1;P1;durP2;ratioP2;P2;SDS_P1;SDS_P2;PMS_P1;PMS_P2;Temp;Humidity;BMP_temperature;BMP_pressure;BME280_temperature;BME280_humidity;BME280_pressure;Samples;Min_cycle;Max_cycle;Signal;HPM_P1;HPM_P2
2021/03/10 00:00:09;;;;;;;10.30;7.47;;;;;;;-4.86;67.66;99756.84;1781649;80;21613;-62
2021/03/10 00:02:41;;;;;;;10.03;6.83;;;;;;;-4.88;67.70;99755.63;1760556;81;21139;-62
2021/03/10 00:05:10;;;;;;;13.48;7.97;;;;;;;-4.89;67.79;99760.42;1785139;80;22240;-62
2021/03/10 00:07:38;;;;;;;16.15;8.88;;;;;;;-4.90;67.82;99759.20;1747091;81;21135;-61
2021/03/10 00:10:09;;;;;;;20.08;10.90;;;;;;;-4.91;67.87;99752.31;1744893;81;21566;-64
2021/03/10 00:12:37;;;;;;;17.45;10.45;;;;;;;-4.93;67.89;99748.95;1754334;81;21116;-62
2021/03/10 00:15:09;;;;;;;15.93;9.43;;;;;;;-4.95;67.97;99751.59;1762093;80;21132;-62
2021/03/10 00:17:37;;;;;;;18.45;11.97;;;;;;;-4.98;68.12;99747.87;1751198;80;21460;-64
2021/03/10 00:20:06;;;;;;;26.87;13.20;;;;;;;-5.02;68.29;99750.19;1728926;81;21010;-61
2021/03/10 00:22:34;;;;;;;27.55;12.98;;;;;;;-5.04;68.39;99750.72;1733265;80;21099;-62
2021/03/10 00:25:03;;;;;;;22.67;13.25;;;;;;;-5.06;68.53;99744.28;1751153;80;21036;-61
2021/03/10 00:27:30;;;;;;;18.10;10.28;;;;;;;-5.08;68.66;99746.11;1751168;80;21114;-62
2021/03/10 00:30:01;;;;;;;18.37;10.65;;;;;;;-5.07;68.73;99750.39;1751082;80;21185;-61
2021/03/10 00:32:28;;;;;;;17.50;9.68;;;;;;;-5.08;68.81;99742.66;1727053;81;21214;-62
2021/03/10 00:34:56;;;;;;;17.82;9.53;;;;;;;-5.09;68.87;99744.89;1727732;81;21147;-63
2021/03/10 00:37:24;;;;;;;16.62;9.60;;;;;;;-5.09;68.93;99740.55;1727710;82;21128;-64
2021/03/10 00:39:51;;;;;;;13.13;8.08;;;;;;;-5.10;68.97;99738.84;1751654;80;21139;-63
2021/03/10 00:42:19;;;;;;;15.00;8.28;;;;;;;-5.11;69.01;99735.86;1726200;81;21379;-63
2021/03/10 00:44:46;;;;;;;14.45;7.33;;;;;;;-5.12;69.08;99736.78;1727663;82;21079;-64
2021/03/10 00:47:14;;;;;;;12.63;8.10;;;;;;;-5.13;69.18;99736.38;1751195;80;20997;-63
2021/03/10 00:50:02;;;;;;;11.00;6.70;;;;;;;-5.13;69.24;99730.34;1745875;80;21173;-63
2021/03/10 00:52:30;;;;;;;11.85;7.33;;;;;;;-5.13;69.31;99727.30;1606406;87;21096;-62
2021/03/10 00:54:57;;;;;;;11.63;7.60;;;;;;;-5.12;69.32;99723.81;1606303;87;21397;-62
2021/03/10 00:57:24;;;;;;;14.83;8.05;;;;;;;-5.11;69.33;99718.99;1599768;89;21199;-62
2021/03/10 00:59:54;;;;;;;13.75;7.95;;;;;;;-5.09;69.29;99724.13;1604148;89;21195;-62
2021/03/10 01:02:22;;;;;;;13.93;7.17;;;;;;;-5.10;69.30;99723.28;1610892;89;21227;-63
2021/03/10 01:04:50;;;;;;;12.85;7.35;;;;;;;-5.10;69.33;99718.09;1610715;88;21246;-61
2021/03/10 01:07:17;;;;;;;17.32;7.70;;;;;;;-5.10;69.38;99714.20;1611152;89;21461;-63
2021/03/10 01:09:45;;;;;;;13.95;7.72;;;;;;;-5.11;69.41;99713.80;1611013;87;21311;-61
2021/03/10 01:12:13;;;;;;;12.23;7.87;;;;;;;-5.11;69.41;99712.98;1611210;88;21033;-61
2021/03/10 01:14:44;;;;;;;16.55;7.90;;;;;;;-5.11;69.42;99702.61;1610917;89;21128;-62
2021/03/10 01:17:12;;;;;;;18.52;8.68;;;;;;;-5.11;69.43;99704.72;1610761;88;21112;-62
2021/03/10 01:19:40;;;;;;;14.18;7.70;;;;;;;-5.11;69.46;99702.13;1610788;87;21481;-62
2021/03/10 01:22:07;;;;;;;15.63;8.33;;;;;;;-5.12;69.47;99705.66;1610724;88;21203;-62
2021/03/10 01:24:35;;;;;;;13.58;7.37;;;;;;;-5.13;69.46;99705.25;1610675;88;21246;-63
2021/03/10 01:27:04;;;;;;;14.73;8.20;;;;;;;-5.15;69.55;99702.34;1611113;87;21109;-63
2021/03/10 01:29:32;;;;;;;14.20;8.00;;;;;;;-5.18;69.59;99699.42;1580053;88;21109;-62
2021/03/10 01:31:59;;;;;;;14.58;8.70;;;;;;;-5.18;69.65;99694.69;1604774;89;21459;-63
2021/03/10 01:34:28;;;;;;;13.08;7.90;;;;;;;-5.19;69.70;99685.23;1611230;87;21193;-63
2021/03/10 01:36:55;;;;;;;15.98;7.60;;;;;;;-5.19;69.75;99690.43;1580606;88;21149;-62
2021/03/10 01:39:22;;;;;;;13.35;8.43;;;;;;;-5.21;69.80;99685.29;1610977;87;21185;-62
2021/03/10 01:41:50;;;;;;;13.50;8.23;;;;;;;-5.21;69.88;99682.70;1611341;87;21217;-63
2021/03/10 01:44:17;;;;;;;14.33;7.62;;;;;;;-5.23;69.94;99682.38;1580477;88;21371;-64
2021/03/10 01:46:45;;;;;;;12.90;8.23;;;;;;;-5.22;69.96;99684.07;1611129;88;21062;-62
2021/03/10 01:49:13;;;;;;;14.68;8.38;;;;;;;-5.22;69.96;99682.78;1573067;88;21051;-64
2021/03/10 01:51:41;;;;;;;14.50;8.25;;;;;;;-5.22;69.96;99681.48;1634700;86;21168;-62
2021/03/10 01:54:08;;;;;;;13.03;7.92;;;;;;;-5.24;70.01;99677.64;1655501;86;21159;-62
2021/03/10 01:56:36;;;;;;;8.80;6.30;;;;;;;-5.26;69.99;99678.16;1663676;86;21401;-62
2021/03/10 01:59:03;;;;;;;11.85;6.67;;;;;;;-5.28;70.03;99671.36;1681165;85;21160;-63
2021/03/10 02:01:31;;;;;;;9.83;6.30;;;;;;;-5.30;70.10;99677.92;1649864;85;21240;-64
2021/03/10 02:04:05;;;;;;;10.95;7.00;;;;;;;-5.31;70.15;99684.01;1677872;85;21092;-61
2021/03/10 02:07:05;;;;;;;11.33;7.33;;;;;;;-5.33;70.21;99680.65;1678331;85;21135;-64
2021/03/10 02:10:08;;;;;;;10.88;6.80;;;;;;;-5.33;70.33;99681.09;1678821;85;21451;-63
2021/03/10 02:13:05;;;;;;;11.28;6.33;;;;;;;-5.35;70.45;99677.73;1671992;85;21579;-61
2021/03/10 02:15:38;;;;;;;10.08;6.45;;;;;;;-5.37;70.49;99681.67;1651255;85;21082;-62
2021/03/10 02:18:14;;;;;;;11.83;6.47;;;;;;;-5.40;70.45;99686.17;1640137;85;21063;-63
2021/03/10 02:20:47;;;;;;;11.25;6.80;;;;;;;-5.42;70.47;99682.81;1640175;85;21111;-61
2021/03/10 02:23:47;;;;;;;11.57;5.90;;;;;;;-5.44;70.42;99678.97;1646427;85;21392;-64
2021/03/10 02:26:26;;;;;;;10.00;6.17;;;;;;;-5.46;70.32;99680.79;1648617;85;21219;-62
2021/03/10 02:28:54;;;;;;;7.45;5.08;;;;;;;-5.55;70.33;99682.94;1633870;85;21124;-62
2021/03/10 02:31:22;;;;;;;7.55;4.95;;;;;;;-5.65;70.53;99681.17;1654834;85;21149;-63
2021/03/10 02:33:49;;;;;;;6.22;4.87;;;;;;;-5.73;70.80;99671.58;1657078;85;21094;-63
2021/03/10 02:36:17;;;;;;;7.42;5.33;;;;;;;-5.77;71.04;99670.03;1654784;85;21375;-62
2021/03/10 02:38:50;;;;;;;7.25;4.50;;;;;;;-5.80;71.21;99668.86;1657805;84;21213;-64
2021/03/10 02:41:17;;;;;;;7.85;4.87;;;;;;;-5.82;71.36;99670.69;1654765;85;21058;-63
2021/03/10 02:43:46;;;;;;;6.72;5.45;;;;;;;-5.83;71.51;99671.13;1659450;84;21229;-63
2021/03/10 02:46:15;;;;;;;11.05;5.78;;;;;;;-5.83;71.66;99669.84;1655207;85;21097;-65
2021/03/10 02:48:44;;;;;;;11.45;5.80;;;;;;;-5.81;71.70;99673.64;1654709;85;21479;-62
2021/03/10 02:51:15;;;;;;;10.20;6.35;;;;;;;-5.80;71.69;99673.60;1665681;84;21500;-64
2021/03/10 02:53:43;;;;;;;14.50;7.62;;;;;;;-5.79;71.67;99673.16;1671025;84;21097;-63
2021/03/10 02:56:11;;;;;;;11.78;7.62;;;;;;;-5.78;71.62;99668.34;1669665;84;21068;-65
2021/03/10 02:58:39;;;;;;;10.38;7.15;;;;;;;-5.78;71.52;99666.59;1669237;84;21615;-62
2021/03/10 03:01:08;;;;;;;10.15;6.75;;;;;;;-5.76;71.41;99666.55;1669102;84;21346;-62
2021/03/10 03:03:36;;;;;;;11.83;7.35;;;;;;;-5.74;71.32;99666.88;1671034;84;21198;-62
2021/03/10 03:06:04;;;;;;;9.33;6.80;;;;;;;-5.74;71.20;99668.62;1669459;84;21596;-62
2021/03/10 03:08:32;;;;;;;12.00;7.65;;;;;;;-5.74;71.13;99668.62;1654234;84;21129;-61
2021/03/10 03:11:04;;;;;;;12.05;7.22;;;;;;;-5.75;71.04;99669.52;1669410;84;20989;-64
2021/03/10 03:13:31;;;;;;;8.60;5.95;;;;;;;-5.77;71.06;99660.97;1667139;84;21220;-63
2021/03/10 03:16:01;;;;;;;9.10;6.42;;;;;;;-5.79;71.06;99662.31;1666163;84;21105;-62
2021/03/10 03:18:29;;;;;;;7.72;5.87;;;;;;;-5.83;70.97;99662.06;1663724;84;21094;-62
2021/03/10 03:20:59;;;;;;;8.23;5.75;;;;;;;-5.89;70.99;99662.34;1663906;84;21172;-63
2021/03/10 03:23:27;;;;;;;6.72;4.60;;;;;;;-5.93;70.91;99657.36;1673399;84;21610;-62
2021/03/10 03:25:55;;;;;;;7.53;5.30;;;;;;;-5.99;70.94;99666.22;1663786;84;21415;-63
2021/03/10 03:28:26;;;;;;;8.25;5.08;;;;;;;-6.05;71.03;99666.94;1663654;84;21565;-62
2021/03/10 03:30:55;;;;;;;10.58;5.47;;;;;;;-6.08;71.22;99670.50;1663763;84;21695;-62
2021/03/10 03:33:27;;;;;;;7.33;5.37;;;;;;;-6.10;71.39;99665.81;1667797;84;21101;-64
2021/03/10 03:35:56;;;;;;;9.58;5.03;;;;;;;-6.10;71.45;99674.05;1636746;86;22001;-61
2021/03/10 03:38:26;;;;;;;6.78;4.78;;;;;;;-6.12;71.41;99667.63;1663815;84;21435;-64
2021/03/10 03:40:54;;;;;;;7.67;5.28;;;;;;;-6.14;71.41;99671.18;1670541;84;21169;-62
2021/03/10 03:43:27;;;;;;;7.30;5.28;;;;;;;-6.16;71.41;99669.97;1668102;84;20947;-63
2021/03/10 03:45:55;;;;;;;8.45;4.85;;;;;;;-6.17;71.45;99664.83;1663823;84;21181;-62
2021/03/10 03:48:22;;;;;;;7.90;5.05;;;;;;;-6.16;71.46;99669.11;1663806;84;21098;-63
2021/03/10 03:50:50;;;;;;;7.95;5.37;;;;;;;-6.13;71.42;99670.29;1663655;84;21383;-63
2021/03/10 03:53:17;;;;;;;9.33;4.90;;;;;;;-6.10;71.27;99668.88;1644891;85;21172;-63
2021/03/10 03:55:45;;;;;;;8.70;4.75;;;;;;;-6.10;71.10;99674.05;1641672;85;21190;-62
2021/03/10 03:58:13;;;;;;;10.50;4.95;;;;;;;-6.12;70.82;99669.36;1641796;85;21087;-62
2021/03/10 04:00:41;;;;;;;8.13;5.85;;;;;;;-6.16;70.77;99675.14;1642081;85;21182;-63
2021/03/10 04:03:09;;;;;;;6.37;5.00;;;;;;;-6.17;70.62;99677.33;1644052;85;21385;-64
2021/03/10 04:05:37;;;;;;;8.08;4.78;;;;;;;-6.21;70.53;99674.93;1642297;85;21166;-63
2021/03/10 04:08:06;;;;;;;8.95;5.83;;;;;;;-6.23;70.53;99680.63;1624581;86;21060;-62
2021/03/10 04:10:37;;;;;;;6.20;5.53;;;;;;;-6.24;70.54;99684.11;1647279;85;21651;-63
2021/03/10 04:13:05;;;;;;;8.40;5.37;;;;;;;-6.23;70.47;99685.81;1620920;87;21185;-63
2021/03/10 04:15:33;;;;;;;7.42;5.50;;;;;;;-6.25;70.61;99678.08;1642073;87;21233;-64
2021/03/10 04:18:02;;;;;;;6.47;4.55;;;;;;;-6.26;70.76;99681.12;1642068;87;21567;-62
2021/03/10 04:20:29;;;;;;;7.92;5.45;;;;;;;-6.23;70.91;99672.86;1640814;87;21158;-62
2021/03/10 04:22:57;;;;;;;7.45;5.45;;;;;;;-6.23;71.05;99679.34;1622119;87;21142;-63
2021/03/10 04:25:25;;;;;;;6.67;5.72;;;;;;;-6.23;71.18;99674.16;1647312;85;21214;-63
2021/03/10 04:27:52;;;;;;;7.90;5.03;;;;;;;-6.23;71.26;99675.45;1642050;87;21489;-66
2021/03/10 04:30:22;;;;;;;11.80;5.12;;;;;;;-6.23;71.32;99675.45;1641990;87;21004;-61
2021/03/10 04:32:49;;;;;;;9.43;5.92;;;;;;;-6.27;71.43;99678.60;1636406;87;21115;-64
2021/03/10 04:35:19;;;;;;;7.75;5.37;;;;;;;-6.29;71.64;99675.24;1642020;87;21162;-65
2021/03/10 04:37:46;;;;;;;8.40;6.00;;;;;;;-6.31;71.80;99672.69;1642098;87;21158;-62
2021/03/10 04:40:15;;;;;;;8.05;5.92;;;;;;;-6.31;71.83;99671.88;1635509;87;21405;-63
2021/03/10 04:42:43;;;;;;;8.25;6.10;;;;;;;-6.32;71.85;99667.59;1649103;85;21094;-64
2021/03/10 04:45:12;;;;;;;10.55;6.78;;;;;;;-6.32;71.92;99670.17;1642109;87;21106;-64
2021/03/10 04:47:44;;;;;;;9.50;6.33;;;;;;;-6.32;71.96;99681.39;1642055;87;21732;-63
2021/03/10 04:50:14;;;;;;;9.18;5.87;;;;;;;-6.25;72.04;99678.08;1633749;87;21582;-65
2021/03/10 04:52:43;;;;;;;8.08;5.92;;;;;;;-6.13;72.04;99683.23;1661529;85;21441;-63
2021/03/10 04:55:11;;;;;;;9.75;6.28;;;;;;;-6.01;71.86;99680.98;1658140;85;21123;-65
2021/03/10 04:57:39;;;;;;;7.28;5.90;;;;;;;-5.89;71.61;99680.95;1656958;85;20949;-64
2021/03/10 05:00:09;;;;;;;13.15;7.50;;;;;;;-5.78;71.30;99675.66;1667261;85;21036;-64
2021/03/10 05:02:36;;;;;;;14.20;6.67;;;;;;;-5.62;71.05;99671.53;1671727;85;21208;-62
2021/03/10 05:05:06;;;;;;;11.35;7.35;;;;;;;-5.41;70.85;99668.91;1661667;85;22255;-65
2021/03/10 05:07:33;;;;;;;11.05;7.20;;;;;;;-5.17;70.42;99665.25;1663053;85;21135;-65
2021/03/10 05:10:04;;;;;;;10.90;7.08;;;;;;;-4.90;70.01;99664.48;1670945;85;21096;-64
2021/03/10 05:12:31;;;;;;;11.97;7.20;;;;;;;-4.60;69.35;99667.80;1672819;85;20996;-65
2021/03/10 05:14:59;;;;;;;11.43;7.08;;;;;;;-4.26;68.59;99662.30;1656530;85;21160;-63
2021/03/10 05:17:27;;;;;;;10.20;7.37;;;;;;;-3.89;68.04;99663.50;1654279;85;21574;-67
2021/03/10 05:19:55;;;;;;;11.03;6.67;;;;;;;-3.57;66.75;99659.30;1654999;85;21232;-67
2021/03/10 05:22:24;;;;;;;6.67;5.70;;;;;;;-2.97;64.31;99661.30;1657635;85;21081;-64
2021/03/10 05:24:51;;;;;;;8.85;5.75;;;;;;;-2.97;64.31;99661.30;1660129;85;21146;-64
2021/03/10 05:27:19;;;;;;;10.38;5.70;;;;;;;-2.63;62.87;99669.44;1661180;85;21159;-62
2021/03/10 05:29:46;;;;;;;7.87;5.35;;;;;;;-2.37;61.81;99660.22;1656996;85;21415;-63
2021/03/10 05:32:14;;;;;;;8.78;5.47;;;;;;;-2.15;60.83;99661.98;1656620;85;21176;-64
2021/03/10 05:34:42;;;;;;;6.75;4.87;;;;;;;-1.96;59.39;99654.35;1658263;85;21121;-63
2021/03/10 05:37:09;;;;;;;6.28;4.78;;;;;;;-1.77;58.99;99667.64;1654838;85;21108;-66
2021/03/10 05:39:37;;;;;;;5.35;4.83;;;;;;;-1.53;58.58;99667.49;1661412;85;21175;-63
2021/03/10 05:42:05;;;;;;;5.37;4.37;;;;;;;-1.28;58.13;99663.33;1654973;84;21408;-63
2021/03/10 05:44:33;;;;;;;6.28;4.70;;;;;;;-1.04;57.81;99662.33;1655629;85;21630;-69
2021/03/10 05:47:01;;;;;;;7.12;5.75;;;;;;;-0.75;56.58;99667.91;1635247;86;20975;-66
2021/03/10 05:49:29;;;;;;;8.25;5.70;;;;;;;-0.52;56.56;99668.27;1657094;85;21599;-67
2021/03/10 05:51:57;;;;;;;8.80;6.45;;;;;;;-0.25;56.50;99658.20;1655856;85;21302;-66
2021/03/10 05:54:24;;;;;;;8.08;6.28;;;;;;;0.05;54.63;99664.55;1646226;85;21411;-65
2021/03/10 05:56:52;;;;;;;6.75;5.75;;;;;;;0.18;54.19;99659.34;1646478;85;21131;-64
2021/03/10 05:59:22;;;;;;;11.83;7.53;;;;;;;0.21;53.90;99656.53;1656514;85;21053;-69
2021/03/10 06:01:49;;;;;;;8.90;7.05;;;;;;;0.28;54.00;99663.03;1672036;85;21584;-71
2021/03/10 06:04:17;;;;;;;8.00;6.50;;;;;;;0.33;53.64;99660.95;1652354;85;21458;-70
2021/03/10 06:06:45;;;;;;;9.45;6.22;;;;;;;0.45;53.50;99662.73;1650659;85;21392;-64
2021/03/10 06:09:18;;;;;;;9.30;6.05;;;;;;;0.62;53.10;99665.08;1647521;85;21234;-61
2021/03/10 06:12:03;;;;;;;7.80;5.95;;;;;;;0.68;52.42;99665.95;1658673;85;22292;-61
2021/03/10 06:14:31;;;;;;;9.10;5.47;;;;;;;0.75;52.19;99670.33;1648706;85;21158;-63
2021/03/10 06:17:09;;;;;;;7.25;5.55;;;;;;;0.92;52.20;99675.23;1645547;85;21234;-62
2021/03/10 06:19:48;;;;;;;7.42;5.05;;;;;;;1.11;51.67;99673.03;1665448;85;21390;-62
2021/03/10 06:22:17;;;;;;;6.55;4.83;;;;;;;1.30;51.18;99672.60;1664079;85;21158;-62
2021/03/10 06:24:46;;;;;;;6.33;5.15;;;;;;;1.46;50.23;99675.33;1665871;85;20980;-60
2021/03/10 06:27:22;;;;;;;5.20;4.17;;;;;;;1.65;50.15;99673.55;1662263;85;21225;-60
2021/03/10 06:29:58;;;;;;;8.00;5.53;;;;;;;1.65;49.90;99674.39;1675491;85;21155;-62
2021/03/10 06:32:25;;;;;;;7.65;4.53;;;;;;;1.74;50.11;99675.06;1672766;85;21486;-62
2021/03/10 06:34:53;;;;;;;7.67;4.58;;;;;;;1.90;49.73;99672.17;1645399;85;21049;-63
2021/03/10 06:37:26;;;;;;;8.38;5.30;;;;;;;2.00;49.49;99677.11;1647053;85;21156;-61
2021/03/10 06:40:10;;;;;;;7.17;4.78;;;;;;;2.16;49.52;99675.05;1643225;85;21278;-63
2021/03/10 06:42:39;;;;;;;5.05;4.55;;;;;;;2.35;49.07;99676.66;1644171;85;45276;-63
2021/03/10 06:45:08;;;;;;;4.78;4.17;;;;;;;2.54;48.43;99675.28;1642572;85;21213;-66
2021/03/10 06:47:40;;;;;;;3.87;3.47;;;;;;;2.62;48.34;99674.23;1645441;85;21242;-63
2021/03/10 06:50:10;;;;;;;4.37;3.83;;;;;;;2.66;47.79;99679.64;1647954;85;21239;-62
2021/03/10 06:52:52;;;;;;;5.67;3.80;;;;;;;2.81;47.77;99683.25;1642744;85;21519;-60
2021/03/10 06:55:20;;;;;;;4.17;3.05;;;;;;;3.01;48.11;99676.46;1643556;85;21518;-62
2021/03/10 06:57:47;;;;;;;3.72;3.42;;;;;;;3.21;47.00;99679.69;1643603;85;21224;-61
2021/03/10 07:00:22;;;;;;;4.12;3.55;;;;;;;3.28;47.12;99678.76;1642033;85;21486;-61
2021/03/10 07:02:50;;;;;;;5.42;3.92;;;;;;;3.40;47.22;99677.31;1662603;85;21577;-63
2021/03/10 07:05:18;;;;;;;4.08;3.30;;;;;;;3.50;46.48;99686.15;1647300;85;21124;-62
2021/03/10 07:07:47;;;;;;;5.62;4.15;;;;;;;3.61;46.49;99686.15;1644002;85;21167;-63
2021/03/10 07:10:18;;;;;;;5.03;3.95;;;;;;;3.69;45.98;99682.44;1639357;85;21088;-64
2021/03/10 07:12:45;;;;;;;6.53;3.77;;;;;;;3.69;46.19;99685.06;1641912;85;21211;-63
2021/03/10 07:15:14;;;;;;;9.23;3.02;;;;;;;3.81;46.28;99678.47;1648196;85;21041;-64
2021/03/10 07:17:43;;;;;;;5.42;3.92;;;;;;;3.94;45.96;99690.50;1643073;85;21656;-65
2021/03/10 07:20:12;;;;;;;4.17;3.72;;;;;;;4.12;45.94;99682.94;1643116;85;21152;-62
2021/03/10 07:23:07;;;;;;;4.33;3.30;;;;;;;4.24;45.12;99687.20;1646637;85;22356;-62
2021/03/10 07:25:35;;;;;;;5.25;4.05;;;;;;;4.22;44.33;99681.22;1649665;85;21159;-62
2021/03/10 07:28:05;;;;;;;5.05;4.50;;;;;;;4.05;44.43;99684.38;1645087;85;21168;-61
2021/03/10 07:30:38;;;;;;;6.92;4.85;;;;;;;3.99;44.14;99692.28;1647007;85;21640;-62
2021/03/10 07:33:10;;;;;;;4.33;3.92;;;;;;;3.93;44.72;99692.80;1643783;84;21199;-61
2021/03/10 07:35:58;;;;;;;8.08;3.98;;;;;;;3.95;44.98;99681.66;1644217;85;21379;-65
2021/03/10 07:38:37;;;;;;;4.12;3.65;;;;;;;3.98;44.71;99684.05;1642284;85;21806;-61
2021/03/10 07:41:08;;;;;;;7.33;4.92;;;;;;;4.09;44.79;99689.77;1646757;85;21085;-60
2021/03/10 07:43:47;;;;;;;3.75;3.33;;;;;;;4.19;44.60;99684.95;1645841;85;21183;-62
2021/03/10 07:46:31;;;;;;;4.50;3.72;;;;;;;4.23;44.15;99682.88;1648339;85;21246;-63
2021/03/10 07:49:01;;;;;;;6.22;3.52;;;;;;;4.23;44.00;99683.72;1644500;85;21400;-60
2021/03/10 07:51:36;;;;;;;5.03;3.62;;;;;;;4.17;44.29;99678.94;1643669;85;21198;-63
2021/03/10 07:54:16;;;;;;;4.60;3.83;;;;;;;4.15;43.95;99679.55;1661850;85;21071;-60
2021/03/10 07:56:44;;;;;;;5.65;3.70;;;;;;;4.12;44.24;99680.30;1665524;85;21247;-60
2021/03/10 07:59:16;;;;;;;3.62;3.22;;;;;;;4.15;43.80;99678.71;1669923;85;21224;-61
2021/03/10 08:01:47;;;;;;;4.80;3.67;;;;;;;4.36;43.71;99675.64;1651341;85;21406;-60
2021/03/10 08:04:17;;;;;;;4.50;4.05;;;;;;;4.54;43.48;99668.85;1654286;85;21610;-61
2021/03/10 08:06:54;;;;;;;4.30;3.62;;;;;;;4.66;43.55;99661.26;1654536;85;21603;-60
2021/03/10 08:09:24;;;;;;;3.83;3.27;;;;;;;4.65;42.60;99666.16;1657500;85;20931;-62
2021/03/10 08:12:09;;;;;;;5.28;3.98;;;;;;;4.66;43.78;99663.05;1654108;85;21061;-59
2021/03/10 08:14:45;;;;;;;5.47;3.70;;;;;;;4.71;43.20;99672.73;1655042;85;21400;-62
2021/03/10 08:17:27;;;;;;;6.28;3.92;;;;;;;4.74;42.83;99670.67;1658718;85;21180;-60
2021/03/10 08:19:58;;;;;;;6.53;3.50;;;;;;;4.51;42.73;99671.73;1657953;85;21153;-60
2021/03/10 08:22:28;;;;;;;6.05;4.05;;;;;;;4.08;43.27;99673.60;1660435;85;21214;-62
2021/03/10 08:24:58;;;;;;;4.20;3.37;;;;;;;3.70;43.77;99675.38;1656655;85;21169;-61
2021/03/10 08:27:38;;;;;;;3.45;3.15;;;;;;;3.24;44.24;99675.52;1657964;85;21433;-60
2021/03/10 08:30:13;;;;;;;7.08;3.52;;;;;;;2.81;45.22;99679.78;1652417;85;21610;-62
2021/03/10 08:32:40;;;;;;;3.98;3.58;;;;;;;2.39;46.32;99674.19;1655578;85;20939;-61
2021/03/10 08:35:14;;;;;;;4.62;3.45;;;;;;;2.01;47.47;99685.33;1654137;85;21172;-60
2021/03/10 08:37:42;;;;;;;4.92;3.92;;;;;;;1.76;47.72;99684.97;1661916;85;21158;-60
2021/03/10 08:40:11;;;;;;;3.80;3.33;;;;;;;1.55;48.48;99681.71;1657257;85;21205;-61
2021/03/10 08:42:46;;;;;;;5.00;4.00;;;;;;;1.56;49.58;99678.16;1658995;85;21250;-59
2021/03/10 08:45:29;;;;;;;4.53;3.62;;;;;;;1.75;49.35;99671.94;1655894;85;21220;-59
2021/03/10 08:48:07;;;;;;;5.05;4.00;;;;;;;2.03;49.16;99670.34;1656300;85;21161;-60
2021/03/10 08:50:41;;;;;;;5.03;3.77;;;;;;;2.33;49.14;99668.06;1654565;85;21146;-61
2021/03/10 08:53:12;;;;;;;5.47;3.40;;;;;;;2.54;48.07;99663.00;1655584;85;21463;-60
2021/03/10 08:55:40;;;;;;;8.08;3.85;;;;;;;2.59;47.90;99662.17;1643034;85;21226;-59
2021/03/10 08:58:15;;;;;;;4.58;3.58;;;;;;;2.76;47.38;99659.59;1644972;85;21100;-60
2021/03/10 09:00:43;;;;;;;4.22;2.98;;;;;;;2.96;46.70;99659.73;1642471;86;21119;-61
2021/03/10 09:03:19;;;;;;;4.97;3.42;;;;;;;3.00;46.14;99661.16;1644823;85;21579;-59
2021/03/10 09:05:49;;;;;;;7.28;3.83;;;;;;;3.08;46.71;99655.31;1642342;86;21176;-60
2021/03/10 09:08:23;;;;;;;3.47;2.75;;;;;;;3.35;46.36;99661.53;1644633;85;21589;-60
2021/03/10 09:10:54;;;;;;;5.05;3.27;;;;;;;3.66;45.73;99660.31;1642522;85;21155;-60
2021/03/10 09:13:24;;;;;;;4.90;3.55;;;;;;;3.81;44.00;99649.53;1649918;86;21025;-60
2021/03/10 09:15:52;;;;;;;3.67;3.35;;;;;;;3.64;43.97;99659.59;1639999;85;21239;-59
2021/03/10 09:18:21;;;;;;;5.40;3.80;;;;;;;3.48;44.10;99654.34;1644318;86;21385;-62
2021/03/10 09:20:50;;;;;;;6.50;3.80;;;;;;;3.31;45.08;99660.11;1648949;86;21084;-60
2021/03/10 09:23:26;;;;;;;6.72;3.90;;;;;;;3.31;44.65;99663.55;1636345;86;21087;-62
2021/03/10 09:25:56;;;;;;;4.67;3.75;;;;;;;3.44;44.86;99664.77;1637959;86;21702;-60
2021/03/10 09:28:35;;;;;;;5.35;4.35;;;;;;;3.60;43.82;99668.67;1634391;86;21175;-61
2021/03/10 09:31:31;;;;;;;3.92;3.40;;;;;;;3.85;43.38;99660.15;1813814;78;23192;-59
2021/03/10 09:34:05;;;;;;;5.03;3.62;;;;;;;3.99;43.35;99658.56;1787822;77;21020;-60
2021/03/10 09:36:34;;;;;;;5.65;3.33;;;;;;;4.22;42.73;99652.26;1749384;82;21435;-62
2021/03/10 09:39:05;;;;;;;3.58;3.27;;;;;;;4.48;42.35;99648.78;1695193;80;21010;-60
2021/03/10 09:41:48;;;;;;;5.80;3.47;;;;;;;4.69;42.52;99645.16;1812274;78;22868;-60
2021/03/10 09:44:18;;;;;;;4.28;3.58;;;;;;;4.89;42.07;99655.36;1788079;79;21084;-60
2021/03/10 09:46:48;;;;;;;6.62;3.47;;;;;;;5.09;41.48;99643.94;1785957;79;21371;-59
2021/03/10 09:49:17;;;;;;;5.28;3.90;;;;;;;5.07;41.33;99647.20;1785666;79;21017;-62
2021/03/10 09:51:48;;;;;;;12.20;3.87;;;;;;;4.82;41.62;99653.70;1784746;79;21041;-59
2021/03/10 09:54:51;;;;;;;8.93;4.50;;;;;;;4.57;42.47;99655.42;1815596;78;23140;-60
2021/03/10 09:57:24;;;;;;;5.50;3.77;;;;;;;4.17;42.78;99657.06;1787118;79;20929;-59
2021/03/10 09:59:56;;;;;;;5.42;4.15;;;;;;;3.77;43.72;99652.88;1787203;79;21559;-58
2021/03/10 10:02:25;;;;;;;5.10;4.17;;;;;;;3.58;45.10;99661.39;1789854;77;21633;-61
2021/03/10 10:04:59;;;;;;;6.08;4.10;;;;;;;3.50;45.59;99653.74;1785937;79;21115;-60
2021/03/10 10:07:29;;;;;;;4.55;4.12;;;;;;;3.42;45.94;99668.81;1777089;79;20981;-60
2021/03/10 10:10:05;;;;;;;4.90;4.28;;;;;;;3.34;46.35;99651.95;1788459;79;20986;-59
2021/03/10 10:12:45;;;;;;;8.15;4.80;;;;;;;3.37;46.90;99656.52;1788395;79;22133;-59
2021/03/10 10:15:15;;;;;;;7.08;4.50;;;;;;;3.41;47.12;99647.91;1788647;79;21000;-59
2021/03/10 10:17:49;;;;;;;6.37;4.80;;;;;;;3.42;47.10;99656.14;1784885;79;20981;-59
2021/03/10 10:20:18;;;;;;;5.50;4.72;;;;;;;3.35;46.88;99660.22;1786510;79;21053;-60
2021/03/10 10:22:46;;;;;;;5.47;4.42;;;;;;;3.17;46.89;99653.77;1788925;79;20922;-60
2021/03/10 10:25:19;;;;;;;5.60;4.80;;;;;;;2.98;47.41;99649.94;1787816;79;23381;-60
2021/03/10 10:27:48;;;;;;;6.30;4.92;;;;;;;2.87;48.14;99648.61;1746200;82;21611;-60
2021/03/10 10:30:18;;;;;;;6.03;4.67;;;;;;;2.82;48.59;99659.10;1706240;82;21163;-60
2021/03/10 10:32:50;;;;;;;6.33;4.53;;;;;;;2.73;48.39;99654.09;1749465;80;21463;-59
2021/03/10 10:35:19;;;;;;;7.25;5.60;;;;;;;2.61;48.97;99648.94;1750047;80;21115;-59
2021/03/10 10:37:46;;;;;;;5.00;4.50;;;;;;;2.57;49.03;99663.23;1753645;80;21235;-60
2021/03/10 10:40:18;;;;;;;7.10;5.22;;;;;;;2.49;49.12;99654.62;1756647;80;21206;-59
2021/03/10 10:42:50;;;;;;;7.63;4.73;;;;;;;2.40;49.62;99649.58;1755496;80;21070;-61
2021/03/10 10:45:18;;;;;;;7.75;5.20;;;;;;;2.36;49.61;99648.63;1751446;80;21166;-59
2021/03/10 10:47:46;;;;;;;10.28;5.37;;;;;;;2.31;50.16;99651.59;1748339;81;21217;-61
2021/03/10 10:50:15;;;;;;;6.17;5.10;;;;;;;2.26;50.63;99641.92;1753155;80;21249;-59
2021/03/10 10:52:47;;;;;;;6.47;5.45;;;;;;;2.16;50.80;99654.05;1748785;80;21203;-59
2021/03/10 10:55:17;;;;;;;13.83;5.67;;;;;;;2.02;51.27;99641.09;1739406;81;21704;-60
2021/03/10 10:57:46;;;;;;;5.62;4.67;;;;;;;1.90;51.42;99645.94;1759173;81;21072;-59
2021/03/10 11:00:23;;;;;;;8.10;5.90;;;;;;;1.81;52.28;99651.84;1775567;79;21073;-59
2021/03/10 11:02:51;;;;;;;5.05;4.55;;;;;;;1.79;52.36;99648.03;1752161;79;22309;-58
2021/03/10 11:05:21;;;;;;;6.97;4.80;;;;;;;1.74;52.29;99647.99;1774056;79;21179;-59
2021/03/10 11:07:50;;;;;;;6.75;4.67;;;;;;;1.67;52.31;99643.64;1774370;79;21115;-59
2021/03/10 11:10:19;;;;;;;5.67;5.05;;;;;;;1.60;51.93;99646.36;1773084;79;21175;-60
2021/03/10 11:12:48;;;;;;;5.97;4.92;;;;;;;1.55;52.21;99647.62;1776230;79;21191;-60
2021/03/10 11:15:18;;;;;;;5.67;4.45;;;;;;;1.47;52.17;99644.24;1773623;79;21370;-60
2021/03/10 11:17:47;;;;;;;7.17;4.67;;;;;;;1.38;52.02;99642.29;1772808;79;21221;-59
2021/03/10 11:20:16;;;;;;;5.45;4.45;;;;;;;1.35;52.10;99646.90;1774634;79;21049;-59
2021/03/10 11:22:43;;;;;;;8.90;5.08;;;;;;;1.30;52.79;99645.92;1735288;82;21127;-62
2021/03/10 11:25:12;;;;;;;6.25;5.20;;;;;;;1.27;53.67;99646.60;1741806;81;21158;-63
2021/03/10 11:27:41;;;;;;;6.35;4.92;;;;;;;1.26;54.04;99641.83;1740772;81;22268;-62
2021/03/10 11:30:12;;;;;;;8.55;5.03;;;;;;;1.22;53.58;99641.22;1745243;80;21650;-61
2021/03/10 11:32:42;;;;;;;9.70;4.92;;;;;;;1.19;53.81;99632.27;1736619;81;21017;-61
2021/03/10 11:35:13;;;;;;;6.45;4.85;;;;;;;1.17;53.94;99633.31;1740482;81;21215;-59
2021/03/10 11:37:41;;;;;;;7.53;5.58;;;;;;;1.18;54.47;99632.34;1738547;80;21641;-63
2021/03/10 11:40:11;;;;;;;6.55;4.87;;;;;;;1.15;54.15;99631.25;1738265;81;21712;-61
2021/03/10 11:42:40;;;;;;;8.05;5.05;;;;;;;1.06;54.17;99629.29;1741913;80;21186;-62
2021/03/10 11:45:10;;;;;;;5.20;4.70;;;;;;;0.97;54.86;99633.84;1741200;81;21154;-60
2021/03/10 11:47:38;;;;;;;6.53;4.87;;;;;;;0.90;54.92;99617.73;1780635;79;21198;-60
2021/03/10 11:50:06;;;;;;;10.35;5.20;;;;;;;0.84;55.22;99620.76;1766268;80;21124;-59